sensor_id;sensor_type;location;lat;lon;timestamp;pressure;altitude;pressure_sealevel;temperature;humidity
20424;BME280;10371;49.042;8.002;2022-11-20T00:00:47;99434.19;;;4.70;100.00
20424;BME280;10371;49.042;8.002;2022-11-20T00:01:47;99436.75;;;4.70;100.00
20424;BME280;10371;49.042;8.002;2022-11-20T00:02:48;99426.75;;;4.65;100.00
20424;BME280;10371;49.042;8.002;2022-11-20T00:03:50;99431.59;;;4.70;100.00
20424;BME280;10371;49.042;8.002;2022-11-20T00:04:51;99438.50;;;4.69;100.00
20424;BME280;10371;49.042;8.002;2022-11-20T00:05:51;99437.88;;;4.66;100.00
20424;BME280;10371;49.042;8.002;2022-11-20T00:06:51;99432.91;;;4.63;100.00
20424;BME280;10371;49.042;8.002;2022-11-20T00:07:51;99438.06;;;4.63;100.00
20424;BME280;10371;49.042;8.002;2022-11-20T00:08:55;99427.41;;;4.55;100.00
20424;BME280;10371;49.042;8.002;2022-11-20T00:09:56;99432.91;;;4.63;100.00
20424;BME280;10371;49.042;8.002;2022-11-20T00:10:56;99443.13;;;4.64;100.00
20424;BME280;10371;49.042;8.002;2022-11-20T00:11:57;99416.09;;;4.57;100.00
20424;BME280;10371;49.042;8.002;2022-11-20T00:12:58;99436.41;;;4.62;100.00
20424;BME280;10371;49.042;8.002;2022-11-20T00:14:00;99442.31;;;4.64;100.00
20424;BME280;10371;49.042;8.002;2022-11-20T00:15:01;99437.88;;;4.66;100.00
20424;BME280;10371;49.042;8.002;2022-11-20T00:16:03;99437.69;;;4.69;100.00
20424;BME280;10371;49.042;8.002;2022-11-20T00:17:04;99443.66;;;4.69;100.00
20424;BME280;10371;49.042;8.002;2022-11-20T00:18:04;99423.97;;;4.68;100.00
20424;BME280;10371;49.042;8.002;2022-11-20T00:19:05;99433.97;;;4.73;100.00
20424;BME280;10371;49.042;8.002;2022-11-20T00:20:05;99441.53;;;4.76;100.00
20424;BME280;10371;49.042;8.002;2022-11-20T00:21:11;99436.38;;;4.76;100.00
20424;BME280;10371;49.042;8.002;2022-11-20T00:22:12;99438.94;;;4.76;100.00
20424;BME280;10371;49.042;8.002;2022-11-20T00:23:12;99436.38;;;4.76;100.00
20424;BME280;10371;49.042;8.002;2022-11-20T00:24:12;99437.91;;;4.79;100.00
20424;BME280;10371;49.042;8.002;2022-11-20T00:25:13;99434.31;;;4.81;100.00
20424;BME280;10371;49.042;8.002;2022-11-20T00:26:15;99432.13;;;4.75;100.00
20424;BME280;10371;49.042;8.002;2022-11-20T00:27:15;99422.38;;;4.80;100.00
20424;BME280;10371;49.042;8.002;2022-11-20T00:28:16;99432.41;;;4.85;100.00
20424;BME280;10371;49.042;8.002;2022-11-20T00:29:16;99429.31;;;4.92;100.00
20424;BME280;10371;49.042;8.002;2022-11-20T00:30:16;99423.25;;;4.93;100.00
20424;BME280;10371;49.042;8.002;2022-11-20T00:31:17;99421.56;;;4.92;100.00
20424;BME280;10371;49.042;8.002;2022-11-20T00:32:18;99428.75;;;5.02;100.00
20424;BME280;10371;49.042;8.002;2022-11-20T00:33:18;99432.44;;;4.98;100.00
20424;BME280;10371;49.042;8.002;2022-11-20T00:34:18;99432.41;;;4.85;100.00
20424;BME280;10371;49.042;8.002;2022-11-20T00:35:18;99430.50;;;4.74;100.00
20424;BME280;10371;49.042;8.002;2022-11-20T00:36:21;99435.16;;;4.82;100.00
20424;BME280;10371;49.042;8.002;2022-11-20T00:37:22;99435.06;;;4.83;100.00
20424;BME280;10371;49.042;8.002;2022-11-20T00:38:22;99429.91;;;4.83;100.00
20424;BME280;10371;49.042;8.002;2022-11-20T00:39:22;99430.09;;;4.80;100.00
20424;BME280;10371;49.042;8.002;2022-11-20T00:40:22;99438.38;;;4.85;100.00
20424;BME280;10371;49.042;8.002;2022-11-20T00:41:24;99434.03;;;4.86;100.00
20424;BME280;10371;49.042;8.002;2022-11-20T00:42:24;99436.50;;;4.87;100.00
20424;BME280;10371;49.042;8.002;2022-11-20T00:43:25;99430.34;;;4.90;100.00
20424;BME280;10371;49.042;8.002;2022-11-20T00:44:26;99428.78;;;4.87;100.00
20424;BME280;10371;49.042;8.002;2022-11-20T00:45:26;99427.88;;;4.88;100.00
20424;BME280;10371;49.042;8.002;2022-11-20T00:46:27;99437.06;;;4.92;100.00
20424;BME280;10371;49.042;8.002;2022-11-20T00:47:28;99423.25;;;4.93;100.00
20424;BME280;10371;49.042;8.002;2022-11-20T00:48:28;99425.84;;;4.93;100.00
20424;BME280;10371;49.042;8.002;2022-11-20T00:49:28;99430.78;;;4.97;100.00
20424;BME280;10371;49.042;8.002;2022-11-20T00:50:29;99419.13;;;4.91;100.00
20424;BME280;10371;49.042;8.002;2022-11-20T00:51:29;99432.44;;;4.98;100.00
20424;BME280;10371;49.042;8.002;2022-11-20T00:52:29;99428.94;;;4.99;100.00
20424;BME280;10371;49.042;8.002;2022-11-20T00:53:30;99429.13;;;4.96;100.00
20424;BME280;10371;49.042;8.002;2022-11-20T00:54:30;99417.34;;;4.91;100.00
20424;BME280;10371;49.042;8.002;2022-11-20T00:55:31;99434.94;;;4.99;100.00
20424;BME280;10371;49.042;8.002;2022-11-20T00:56:31;99418.72;;;4.97;100.00
20424;BME280;10371;49.042;8.002;2022-11-20T00:57:31;99427.81;;;5.03;100.00
20424;BME280;10371;49.042;8.002;2022-11-20T00:58:36;99431.22;;;5.03;100.00
20424;BME280;10371;49.042;8.002;2022-11-20T00:59:37;99424.22;;;5.05;100.00
20424;BME280;10371;49.042;8.002;2022-11-20T01:00:37;99414.03;;;4.89;100.00
20424;BME280;10371;49.042;8.002;2022-11-20T01:01:38;99424.97;;;4.93;100.00
20424;BME280;10371;49.042;8.002;2022-11-20T01:02:38;99423.25;;;4.93;100.00
20424;BME280;10371;49.042;8.002;2022-11-20T01:03:41;99416.34;;;4.94;100.00
20424;BME280;10371;49.042;8.002;2022-11-20T01:04:41;99436.50;;;5.02;100.00
20424;BME280;10371;49.042;8.002;2022-11-20T01:05:42;99422.84;;;5.00;100.00
20424;BME280;10371;49.042;8.002;2022-11-20T01:06:42;99422.75;;;5.01;100.00
20424;BME280;10371;49.042;8.002;2022-11-20T01:07:42;99419.19;;;4.89;100.00
20424;BME280;10371;49.042;8.002;2022-11-20T01:08:43;99436.69;;;4.99;100.00
20424;BME280;10371;49.042;8.002;2022-11-20T01:09:44;99429.13;;;4.96;100.00
20424;BME280;10371;49.042;8.002;2022-11-20T01:10:44;99423.69;;;5.00;100.00
20424;BME280;10371;49.042;8.002;2022-11-20T01:11:45;99427.81;;;5.03;100.00
20424;BME280;10371;49.042;8.002;2022-11-20T01:12:45;99427.81;;;5.03;100.00
20424;BME280;10371;49.042;8.002;2022-11-20T01:14:09;99430.31;;;5.04;100.00
20424;BME280;10371;49.042;8.002;2022-11-20T01:15:10;99421.72;;;5.04;100.00
20424;BME280;10371;49.042;8.002;2022-11-20T01:16:12;99428.84;;;5.00;100.00
20424;BME280;10371;49.042;8.002;2022-11-20T01:17:13;99419.34;;;5.01;100.00
20424;BME280;10371;49.042;8.002;2022-11-20T01:18:13;99424.69;;;4.98;100.00
20424;BME280;10371;49.042;8.002;2022-11-20T01:19:17;99423.06;;;4.97;100.00
20424;BME280;10371;49.042;8.002;2022-11-20T01:20:17;99424.97;;;4.93;100.00
20424;BME280;10371;49.042;8.002;2022-11-20T01:21:30;99428.47;;;4.79;100.00
20424;BME280;10371;49.042;8.002;2022-11-20T01:22:30;99428.16;;;4.84;100.00
20424;BME280;10371;49.042;8.002;2022-11-20T01:23:32;99430.09;;;4.80;100.00
20424;BME280;10371;49.042;8.002;2022-11-20T01:24:32;99427.91;;;4.74;100.00
20424;BME280;10371;49.042;8.002;2022-11-20T01:25:34;99425.81;;;4.66;100.00
20424;BME280;10371;49.042;8.002;2022-11-20T01:26:36;99430.50;;;4.74;100.00
20424;BME280;10371;49.042;8.002;2022-11-20T01:27:36;99425.78;;;4.81;100.00
20424;BME280;10371;49.042;8.002;2022-11-20T01:28:38;99430.72;;;4.84;100.00
20424;BME280;10371;49.042;8.002;2022-11-20T01:29:38;99429.09;;;4.83;100.00
20424;BME280;10371;49.042;8.002;2022-11-20T01:30:39;99428.97;;;4.84;100.00
20424;BME280;10371;49.042;8.002;2022-11-20T01:31:39;99420.13;;;4.88;100.00
20424;BME280;10371;49.042;8.002;2022-11-20T01:32:39;99412.41;;;4.88;100.00
20424;BME280;10371;49.042;8.002;2022-11-20T01:33:40;99421.22;;;4.99;100.00
20424;BME280;10371;49.042;8.002;2022-11-20T01:34:41;99411.81;;;4.98;100.00
20424;BME280;10371;49.042;8.002;2022-11-20T01:35:41;99416.66;;;5.02;100.00
20424;BME280;10371;49.042;8.002;2022-11-20T01:36:42;99418.31;;;5.03;100.00
20424;BME280;10371;49.042;8.002;2022-11-20T01:37:42;99405.00;;;4.97;100.00
20424;BME280;10371;49.042;8.002;2022-11-20T01:38:42;99414.09;;;5.02;100.00
20424;BME280;10371;49.042;8.002;2022-11-20T01:39:43;99410.56;;;5.03;100.00
20424;BME280;10371;49.042;8.002;2022-11-20T01:40:43;99404.78;;;5.00;100.00
20424;BME280;10371;49.042;8.002;2022-11-20T01:41:46;99418.22;;;5.05;100.00
20424;BME280;10371;49.042;8.002;2022-11-20T01:43:19;99417.50;;;5.03;100.00
20424;BME280;10371;49.042;8.002;2022-11-20T01:44:43;99410.56;;;5.03;100.00
20424;BME280;10371;49.042;8.002;2022-11-20T01:47:04;99410.38;;;5.06;100.00
20424;BME280;10371;49.042;8.002;2022-11-20T01:48:06;99406.78;;;5.09;100.00
20424;BME280;10371;49.042;8.002;2022-11-20T01:49:20;99404.00;;;5.12;100.00
20424;BME280;10371;49.042;8.002;2022-11-20T01:50:24;99407.09;;;5.17;100.00
20424;BME280;10371;49.042;8.002;2022-11-20T01:51:33;99411.78;;;5.25;100.00
20424;BME280;10371;49.042;8.002;2022-11-20T01:52:42;99406.50;;;5.26;100.00
20424;BME280;10371;49.042;8.002;2022-11-20T01:53:45;99407.69;;;5.35;100.00
20424;BME280;10371;49.042;8.002;2022-11-20T01:54:50;99402.00;;;5.43;100.00
20424;BME280;10371;49.042;8.002;2022-11-20T01:55:55;99405.72;;;5.51;100.00
20424;BME280;10371;49.042;8.002;2022-11-20T01:56:57;99405.22;;;5.59;100.00
20424;BME280;10371;49.042;8.002;2022-11-20T01:58:00;99397.16;;;5.64;100.00
20424;BME280;10371;49.042;8.002;2022-11-20T01:59:04;99404.06;;;5.76;100.00
20424;BME280;10371;49.042;8.002;2022-11-20T02:00:12;99405.31;;;5.83;100.00
20424;BME280;10371;49.042;8.002;2022-11-20T02:01:13;99409.13;;;5.90;100.00
20424;BME280;10371;49.042;8.002;2022-11-20T02:02:14;99397.59;;;5.96;100.00
20424;BME280;10371;49.042;8.002;2022-11-20T02:03:18;99403.69;;;6.08;100.00
20424;BME280;10371;49.042;8.002;2022-11-20T02:04:20;99406.66;;;6.14;100.00
20424;BME280;10371;49.042;8.002;2022-11-20T02:06:35;99400.53;;;6.28;100.00
20424;BME280;10371;49.042;8.002;2022-11-20T02:07:36;99395.16;;;6.31;100.00
20424;BME280;10371;49.042;8.002;2022-11-20T02:08:37;99404.16;;;6.38;100.00
20424;BME280;10371;49.042;8.002;2022-11-20T02:09:38;99402.16;;;6.42;100.00
20424;BME280;10371;49.042;8.002;2022-11-20T02:10:38;99399.78;;;6.39;100.00
20424;BME280;10371;49.042;8.002;2022-11-20T02:11:38;99390.78;;;6.44;100.00
20424;BME280;10371;49.042;8.002;2022-11-20T02:12:39;99407.19;;;6.56;100.00
20424;BME280;10371;49.042;8.002;2022-11-20T02:13:58;99404.97;;;6.63;100.00
20424;BME280;10371;49.042;8.002;2022-11-20T02:14:59;99400.31;;;6.68;100.00
20424;BME280;10371;49.042;8.002;2022-11-20T02:16:00;99381.59;;;6.64;100.00
20424;BME280;10371;49.042;8.002;2022-11-20T02:17:00;99402.13;;;6.79;100.00
20424;BME280;10371;49.042;8.002;2022-11-20T02:18:00;99403.69;;;6.81;100.00
20424;BME280;10371;49.042;8.002;2022-11-20T02:19:04;99399.53;;;6.79;100.00
20424;BME280;10371;49.042;8.002;2022-11-20T02:20:06;99398.50;;;6.81;100.00
20424;BME280;10371;49.042;8.002;2022-11-20T02:21:21;99401.19;;;6.80;100.00
20424;BME280;10371;49.042;8.002;2022-11-20T02:22:31;99391.69;;;6.80;100.00
20424;BME280;10371;49.042;8.002;2022-11-20T02:24:51;99396.22;;;6.77;100.00
20424;BME280;10371;49.042;8.002;2022-11-20T02:25:52;99397.91;;;6.78;100.00
20424;BME280;10371;49.042;8.002;2022-11-20T02:27:15;99399.53;;;6.79;100.00
20424;BME280;10371;49.042;8.002;2022-11-20T02:28:17;99407.53;;;6.76;100.00
20424;BME280;10371;49.042;8.002;2022-11-20T02:29:51;99407.53;;;6.76;100.00
20424;BME280;10371;49.042;8.002;2022-11-20T02:30:52;99401.84;;;6.70;100.00
20424;BME280;10371;49.042;8.002;2022-11-20T02:31:54;99411.97;;;6.74;100.00
20424;BME280;10371;49.042;8.002;2022-11-20T02:32:55;99409.38;;;6.74;100.00
20424;BME280;10371;49.042;8.002;2022-11-20T02:33:57;99393.19;;;6.71;100.00
20424;BME280;10371;49.042;8.002;2022-11-20T02:35:05;99415.88;;;6.79;100.00
20424;BME280;10371;49.042;8.002;2022-11-20T02:36:08;99402.94;;;6.79;100.00
20424;BME280;10371;49.042;8.002;2022-11-20T02:37:12;99412.25;;;6.82;100.00
20424;BME280;10371;49.042;8.002;2022-11-20T02:38:13;99410.31;;;6.85;100.00
20424;BME280;10371;49.042;8.002;2022-11-20T02:39:15;99410.16;;;6.87;100.00
20424;BME280;10371;49.042;8.002;2022-11-20T02:40:16;99404.69;;;6.91;100.00
20424;BME280;10371;49.042;8.002;2022-11-20T02:41:17;99407.34;;;6.90;100.00
20424;BME280;10371;49.042;8.002;2022-11-20T02:42:18;99401.75;;;6.96;100.00
20424;BME280;10371;49.042;8.002;2022-11-20T02:43:18;99404.22;;;6.98;100.00
20424;BME280;10371;49.042;8.002;2022-11-20T02:44:18;99410.13;;;7.00;100.00
20424;BME280;10371;49.042;8.002;2022-11-20T02:45:19;99409.19;;;7.01;100.00
20424;BME280;10371;49.042;8.002;2022-11-20T02:46:19;99408.22;;;7.02;100.00
20424;BME280;10371;49.042;8.002;2022-11-20T02:47:19;99404.81;;;7.01;100.00
20424;BME280;10371;49.042;8.002;2022-11-20T02:48:20;99409.91;;;7.03;100.00
20424;BME280;10371;49.042;8.002;2022-11-20T02:49:20;99413.44;;;7.13;100.00
20424;BME280;10371;49.042;8.002;2022-11-20T02:50:20;99409.81;;;7.15;100.00
20424;BME280;10371;49.042;8.002;2022-11-20T02:51:21;99411.34;;;7.18;100.00
20424;BME280;10371;49.042;8.002;2022-11-20T02:52:22;99400.41;;;7.14;100.00
20424;BME280;10371;49.042;8.002;2022-11-20T02:53:22;99394.41;;;7.14;100.00
20424;BME280;10371;49.042;8.002;2022-11-20T02:54:23;99393.91;;;7.09;100.00
20424;BME280;10371;49.042;8.002;2022-11-20T02:55:23;99404.31;;;7.20;100.00
20424;BME280;10371;49.042;8.002;2022-11-20T02:56:24;99406.06;;;7.20;100.00
20424;BME280;10371;49.042;8.002;2022-11-20T02:57:24;99412.56;;;7.25;100.00
20424;BME280;10371;49.042;8.002;2022-11-20T02:58:24;99390.41;;;7.21;100.00
20424;BME280;10371;49.042;8.002;2022-11-20T02:59:25;99400.22;;;7.29;100.00
20424;BME280;10371;49.042;8.002;2022-11-20T03:00:25;99390.09;;;7.26;100.00
20424;BME280;10371;49.042;8.002;2022-11-20T03:01:25;99397.28;;;7.33;100.00
20424;BME280;10371;49.042;8.002;2022-11-20T03:02:29;99391.84;;;7.25;100.00
20424;BME280;10371;49.042;8.002;2022-11-20T03:03:30;99394.94;;;7.30;100.00
20424;BME280;10371;49.042;8.002;2022-11-20T03:04:30;99391.31;;;7.33;100.00
20424;BME280;10371;49.042;8.002;2022-11-20T03:05:31;99388.09;;;7.29;100.00
20424;BME280;10371;49.042;8.002;2022-11-20T03:06:31;99395.53;;;7.34;100.00
20424;BME280;10371;49.042;8.002;2022-11-20T03:07:31;99395.53;;;7.34;100.00
20424;BME280;10371;49.042;8.002;2022-11-20T03:08:32;99389.41;;;7.35;100.00
20424;BME280;10371;49.042;8.002;2022-11-20T03:09:32;99394.47;;;7.36;100.00
20424;BME280;10371;49.042;8.002;2022-11-20T03:10:33;99394.56;;;7.35;100.00
20424;BME280;10371;49.042;8.002;2022-11-20T03:11:33;99395.44;;;7.35;100.00
20424;BME280;10371;49.042;8.002;2022-11-20T03:12:33;99395.44;;;7.35;100.00
20424;BME280;10371;49.042;8.002;2022-11-20T03:13:34;99393.88;;;7.33;100.00
20424;BME280;10371;49.042;8.002;2022-11-20T03:14:34;99398.69;;;7.37;100.00
20424;BME280;10371;49.042;8.002;2022-11-20T03:15:36;99394.47;;;7.36;100.00
20424;BME280;10371;49.042;8.002;2022-11-20T03:16:36;99396.13;;;7.37;100.00
20424;BME280;10371;49.042;8.002;2022-11-20T03:17:37;99387.84;;;7.32;100.00
20424;BME280;10371;49.042;8.002;2022-11-20T03:18:38;99406.16;;;7.42;100.00
20424;BME280;10371;49.042;8.002;2022-11-20T03:19:38;99399.31;;;7.41;100.00
20424;BME280;10371;49.042;8.002;2022-11-20T03:20:38;99394.34;;;7.38;100.00
20424;BME280;10371;49.042;8.002;2022-11-20T03:21:39;99396.84;;;7.39;100.00
20424;BME280;10371;49.042;8.002;2022-11-20T03:22:39;99399.44;;;7.39;100.00
20424;BME280;10371;49.042;8.002;2022-11-20T03:23:40;99396.13;;;7.37;100.00
20424;BME280;10371;49.042;8.002;2022-11-20T03:24:41;99400.72;;;7.45;100.00
20424;BME280;10371;49.042;8.002;2022-11-20T03:25:41;99388.00;;;7.42;100.00
20424;BME280;10371;49.042;8.002;2022-11-20T03:26:41;99387.44;;;7.38;100.00
20424;BME280;10371;49.042;8.002;2022-11-20T03:27:42;99388.00;;;7.42;100.00
20424;BME280;10371;49.042;8.002;2022-11-20T03:28:46;99392.72;;;7.48;100.00
20424;BME280;10371;49.042;8.002;2022-11-20T03:29:47;99387.78;;;7.45;100.00
20424;BME280;10371;49.042;8.002;2022-11-20T03:30:47;99389.19;;;7.49;100.00
20424;BME280;10371;49.042;8.002;2022-11-20T03:31:48;99392.72;;;7.48;100.00
20424;BME280;10371;49.042;8.002;2022-11-20T03:32:48;99388.50;;;7.47;100.00
20424;BME280;10371;49.042;8.002;2022-11-20T03:33:48;99401.00;;;7.53;100.00
20424;BME280;10371;49.042;8.002;2022-11-20T03:34:49;99387.09;;;7.54;100.00
20424;BME280;10371;49.042;8.002;2022-11-20T03:35:49;99389.69;;;7.54;100.00
20424;BME280;10371;49.042;8.002;2022-11-20T03:36:49;99392.25;;;7.54;100.00
20424;BME280;10371;49.042;8.002;2022-11-20T03:37:50;99395.56;;;7.56;100.00
20424;BME280;10371;49.042;8.002;2022-11-20T03:38:50;99394.41;;;7.60;100.00
20424;BME280;10371;49.042;8.002;2022-11-20T03:39:50;99389.94;;;7.63;100.00
20424;BME280;10371;49.042;8.002;2022-11-20T03:40:51;99395.72;;;7.66;100.00
20424;BME280;10371;49.042;8.002;2022-11-20T03:41:51;99382.88;;;7.65;100.00
20424;BME280;10371;49.042;8.002;2022-11-20T03:42:51;99391.59;;;7.64;100.00
20424;BME280;10371;49.042;8.002;2022-11-20T03:43:57;99385.81;;;7.60;100.00
20424;BME280;10371;49.042;8.002;2022-11-20T03:44:58;99390.88;;;7.61;100.00
20424;BME280;10371;49.042;8.002;2022-11-20T03:45:58;99392.50;;;7.63;100.00
20424;BME280;10371;49.042;8.002;2022-11-20T03:46:59;99385.69;;;7.61;100.00
20424;BME280;10371;49.042;8.002;2022-11-20T03:47:59;99390.88;;;7.61;100.00
20424;BME280;10371;49.042;8.002;2022-11-20T03:48:59;99388.38;;;7.60;100.00
20424;BME280;10371;49.042;8.002;2022-11-20T03:50:00;99389.81;;;7.64;100.00
20424;BME280;10371;49.042;8.002;2022-11-20T03:51:15;99389.09;;;7.62;100.00
20424;BME280;10371;49.042;8.002;2022-11-20T03:52:16;99397.59;;;7.64;100.00
20424;BME280;10371;49.042;8.002;2022-11-20T03:53:17;99389.47;;;7.69;100.00
20424;BME280;10371;49.042;8.002;2022-11-20T03:54:17;99378.66;;;7.64;100.00
20424;BME280;10371;49.042;8.002;2022-11-20T03:55:17;99373.56;;;7.62;100.00
20424;BME280;10371;49.042;8.002;2022-11-20T03:56:20;99385.13;;;7.69;100.00
20424;BME280;10371;49.042;8.002;2022-11-20T03:57:22;99383.34;;;7.70;100.00
20424;BME280;10371;49.042;8.002;2022-11-20T03:58:22;99379.22;;;7.67;100.00
20424;BME280;10371;49.042;8.002;2022-11-20T03:59:22;99371.69;;;7.64;100.00
20424;BME280;10371;49.042;8.002;2022-11-20T04:00:23;99378.66;;;7.64;100.00
20424;BME280;10371;49.042;8.002;2022-11-20T04:01:27;99387.59;;;7.71;100.00
20424;BME280;10371;49.042;8.002;2022-11-20T04:02:28;99374.16;;;7.66;100.00
20424;BME280;10371;49.042;8.002;2022-11-20T04:03:28;99389.25;;;7.72;100.00
20424;BME280;10371;49.042;8.002;2022-11-20T04:04:28;99382.41;;;7.71;100.00
20424;BME280;10371;49.042;8.002;2022-11-20T04:05:29;99373.09;;;7.68;100.00
20424;BME280;10371;49.042;8.002;2022-11-20T04:06:34;99371.31;;;7.69;100.00
20424;BME280;10371;49.042;8.002;2022-11-20T04:07:35;99374.63;;;7.71;100.00
20424;BME280;10371;49.042;8.002;2022-11-20T04:08:35;99381.00;;;7.78;100.00
20424;BME280;10371;49.042;8.002;2022-11-20T04:09:36;99384.75;;;7.74;100.00
20424;BME280;10371;49.042;8.002;2022-11-20T04:10:36;99389.59;;;7.78;100.00
20424;BME280;10371;49.042;8.002;2022-11-20T04:11:37;99381.94;;;7.77;100.00
20424;BME280;10371;49.042;8.002;2022-11-20T04:12:39;99372.03;;;7.71;100.00
20424;BME280;10371;49.042;8.002;2022-11-20T04:13:40;99379.94;;;7.69;100.00
20424;BME280;10371;49.042;8.002;2022-11-20T04:14:41;99377.94;;;7.73;100.00
20424;BME280;10371;49.042;8.002;2022-11-20T04:15:41;99384.19;;;7.81;100.00
20424;BME280;10371;49.042;8.002;2022-11-20T04:16:42;99382.41;;;7.82;100.00
20424;BME280;10371;49.042;8.002;2022-11-20T04:17:43;99383.59;;;7.78;100.00
20424;BME280;10371;49.042;8.002;2022-11-20T04:18:43;99377.59;;;7.77;100.00
20424;BME280;10371;49.042;8.002;2022-11-20T04:19:44;99388.41;;;7.82;100.00
20424;BME280;10371;49.042;8.002;2022-11-20T04:20:44;99383.84;;;7.86;100.00
20424;BME280;10371;49.042;8.002;2022-11-20T04:21:44;99377.13;;;7.83;100.00
20424;BME280;10371;49.042;8.002;2022-11-20T04:22:44;99383.59;;;7.89;100.00
20424;BME280;10371;49.042;8.002;2022-11-20T04:23:45;99387.13;;;7.88;100.00
20424;BME280;10371;49.042;8.002;2022-11-20T04:24:45;99379.47;;;7.87;100.00
20424;BME280;10371;49.042;8.002;2022-11-20T04:25:45;99378.66;;;7.86;100.00
20424;BME280;10371;49.042;8.002;2022-11-20T04:26:46;99385.38;;;7.89;100.00
20424;BME280;10371;49.042;8.002;2022-11-20T04:27:46;99371.81;;;7.85;100.00
20424;BME280;10371;49.042;8.002;2022-11-20T04:28:46;99369.22;;;7.85;100.00
20424;BME280;10371;49.042;8.002;2022-11-20T04:29:46;99378.66;;;7.86;100.00
20424;BME280;10371;49.042;8.002;2022-11-20T04:30:47;99381.34;;;7.84;100.00
20424;BME280;10371;49.042;8.002;2022-11-20T04:31:47;99378.75;;;7.84;100.00
20424;BME280;10371;49.042;8.002;2022-11-20T04:32:47;99371.81;;;7.85;100.00
20424;BME280;10371;49.042;8.002;2022-11-20T04:33:48;99375.13;;;7.87;100.00
20424;BME280;10371;49.042;8.002;2022-11-20T04:34:48;99372.75;;;7.84;100.00
20424;BME280;10371;49.042;8.002;2022-11-20T04:35:49;99372.53;;;7.87;100.00
20424;BME280;10371;49.042;8.002;2022-11-20T04:36:49;99370.28;;;7.82;100.00
20424;BME280;10371;49.042;8.002;2022-11-20T04:37:51;99373.72;;;7.83;100.00
20424;BME280;10371;49.042;8.002;2022-11-20T04:38:53;99376.06;;;7.86;100.00
20424;BME280;10371;49.042;8.002;2022-11-20T04:39:53;99379.47;;;7.87;100.00
20424;BME280;10371;49.042;8.002;2022-11-20T04:41:02;99383.47;;;7.91;100.00
20424;BME280;10371;49.042;8.002;2022-11-20T04:42:03;99379.94;;;7.92;100.00
20424;BME280;10371;49.042;8.002;2022-11-20T04:43:21;99376.88;;;7.87;100.00
20424;BME280;10371;49.042;8.002;2022-11-20T04:44:22;99368.41;;;7.84;100.00
20424;BME280;10371;49.042;8.002;2022-11-20T04:45:22;99377.00;;;7.85;100.00
20424;BME280;10371;49.042;8.002;2022-11-20T04:46:23;99371.69;;;7.87;100.00
20424;BME280;10371;49.042;8.002;2022-11-20T04:47:23;99375.59;;;7.92;100.00
20424;BME280;10371;49.042;8.002;2022-11-20T04:48:25;99370.41;;;7.92;100.00
20424;BME280;10371;49.042;8.002;2022-11-20T04:49:25;99374.16;;;7.88;100.00
20424;BME280;10371;49.042;8.002;2022-11-20T04:50:26;99370.88;;;7.86;100.00
20424;BME280;10371;49.042;8.002;2022-11-20T04:51:27;99359.31;;;7.79;100.00
20424;BME280;10371;49.042;8.002;2022-11-20T04:52:27;99375.25;;;7.86;100.00
20424;BME280;10371;49.042;8.002;2022-11-20T04:53:27;99378.66;;;7.86;100.00
20424;BME280;10371;49.042;8.002;2022-11-20T04:54:28;99375.25;;;7.86;100.00
20424;BME280;10371;49.042;8.002;2022-11-20T04:55:28;99369.34;;;7.83;100.00
20424;BME280;10371;49.042;8.002;2022-11-20T04:56:28;99377.94;;;7.84;100.00
20424;BME280;10371;49.042;8.002;2022-11-20T04:57:28;99373.56;;;7.84;100.00
20424;BME280;10371;49.042;8.002;2022-11-20T04:58:29;99370.06;;;7.86;100.00
20424;BME280;10371;49.042;8.002;2022-11-20T04:59:30;99372.53;;;7.87;100.00
20424;BME280;10371;49.042;8.002;2022-11-20T05:00:30;99371.94;;;7.83;100.00
20424;BME280;10371;49.042;8.002;2022-11-20T05:01:30;99373.47;;;7.86;100.00
20424;BME280;10371;49.042;8.002;2022-11-20T05:02:31;99378.66;;;7.86;100.00
20424;BME280;10371;49.042;8.002;2022-11-20T05:03:31;99375.34;;;7.84;100.00
20424;BME280;10371;49.042;8.002;2022-11-20T05:04:32;99368.88;;;7.78;100.00
20424;BME280;10371;49.042;8.002;2022-11-20T05:05:34;99371.31;;;7.80;100.00
20424;BME280;10371;49.042;8.002;2022-11-20T05:06:34;99353.19;;;7.69;100.00
20424;BME280;10371;49.042;8.002;2022-11-20T05:07:34;99376.50;;;7.80;100.00
20424;BME280;10371;49.042;8.002;2022-11-20T05:08:35;99373.00;;;7.81;100.00
20424;BME280;10371;49.042;8.002;2022-11-20T05:09:35;99374.16;;;7.77;100.00
20424;BME280;10371;49.042;8.002;2022-11-20T05:10:35;99358.25;;;7.70;100.00
20424;BME280;10371;49.042;8.002;2022-11-20T05:11:35;99373.00;;;7.81;100.00
20424;BME280;10371;49.042;8.002;2022-11-20T05:12:36;99368.63;;;7.81;100.00
20424;BME280;10371;49.042;8.002;2022-11-20T05:13:37;99371.56;;;7.88;100.00
20424;BME280;10371;49.042;8.002;2022-11-20T05:14:37;99366.53;;;7.87;100.00
20424;BME280;10371;49.042;8.002;2022-11-20T05:15:37;99368.97;;;7.88;100.00
20424;BME280;10371;49.042;8.002;2022-11-20T05:16:38;99367.69;;;7.82;100.00
20424;BME280;10371;49.042;8.002;2022-11-20T05:17:38;99364.97;;;7.84;100.00
20424;BME280;10371;49.042;8.002;2022-11-20T05:18:39;99357.22;;;7.84;100.00
20424;BME280;10371;49.042;8.002;2022-11-20T05:19:39;99364.03;;;7.85;100.00
20424;BME280;10371;49.042;8.002;2022-11-20T05:20:40;99369.94;;;7.87;100.00
20424;BME280;10371;49.042;8.002;2022-11-20T05:21:40;99347.44;;;7.76;100.00
20424;BME280;10371;49.042;8.002;2022-11-20T05:22:40;99357.44;;;7.81;100.00
20424;BME280;10371;49.042;8.002;2022-11-20T05:23:41;99366.53;;;7.87;100.00
20424;BME280;10371;49.042;8.002;2022-11-20T05:24:42;99362.41;;;7.84;100.00
20424;BME280;10371;49.042;8.002;2022-11-20T05:25:43;99358.50;;;7.78;100.00
20424;BME280;10371;49.042;8.002;2022-11-20T05:26:43;99368.16;;;7.76;100.00
20424;BME280;10371;49.042;8.002;2022-11-20T05:27:43;99347.31;;;7.67;100.00
20424;BME280;10371;49.042;8.002;2022-11-20T05:28:44;99370.28;;;7.82;100.00
20424;BME280;10371;49.042;8.002;2022-11-20T05:29:44;99365.31;;;7.79;100.00
20424;BME280;10371;49.042;8.002;2022-11-20T05:30:44;99354.16;;;7.79;100.00